sensor_id;sensor_type;location;lat;lon;timestamp;pressure;altitude;pressure_sealevel;temperature;humidity
67818;BME280;54614;47.576;7.524;2024-02-04T00:02:05;99981.09;;;22.33;38.00
67818;BME280;54614;47.576;7.524;2024-02-04T00:04:33;99973.91;;;22.34;38.23
67818;BME280;54614;47.576;7.524;2024-02-04T00:06:59;99975.06;;;22.31;38.21
67818;BME280;54614;47.576;7.524;2024-02-04T00:09:25;99983.28;;;22.30;38.38
67818;BME280;54614;47.576;7.524;2024-02-04T00:11:54;99984.09;;;22.30;38.37
67818;BME280;54614;47.576;7.524;2024-02-04T00:14:20;99979.75;;;22.29;38.23
67818;BME280;54614;47.576;7.524;2024-02-04T00:16:45;99989.16;;;22.33;38.18
67818;BME280;54614;47.576;7.524;2024-02-04T00:19:11;99977.75;;;22.31;38.20
67818;BME280;54614;47.576;7.524;2024-02-04T00:21:37;99963.66;;;22.29;38.38
67818;BME280;54614;47.576;7.524;2024-02-04T00:24:03;99962.00;;;22.28;38.42
67818;BME280;54614;47.576;7.524;2024-02-04T00:26:29;99971.88;;;22.28;38.07
67818;BME280;54614;47.576;7.524;2024-02-04T00:28:54;99975.88;;;22.24;38.35
67818;BME280;54614;47.576;7.524;2024-02-04T00:31:20;99972.88;;;22.27;38.06
67818;BME280;54614;47.576;7.524;2024-02-04T00:33:46;99982.75;;;22.26;38.25
67818;BME280;54614;47.576;7.524;2024-02-04T00:36:11;99987.13;;;22.27;38.21
67818;BME280;54614;47.576;7.524;2024-02-04T00:38:37;99980.91;;;22.27;38.43
67818;BME280;54614;47.576;7.524;2024-02-04T00:41:04;99975.03;;;22.23;38.39
67818;BME280;54614;47.576;7.524;2024-02-04T00:43:31;99964.16;;;22.25;38.16
67818;BME280;54614;47.576;7.524;2024-02-04T00:45:56;99971.69;;;22.21;38.46
67818;BME280;54614;47.576;7.524;2024-02-04T00:48:22;99955.59;;;22.21;38.48
67818;BME280;54614;47.576;7.524;2024-02-04T00:50:48;99946.56;;;22.22;38.48
67818;BME280;54614;47.576;7.524;2024-02-04T00:53:14;99945.56;;;22.23;38.38
67818;BME280;54614;47.576;7.524;2024-02-04T00:55:40;99945.22;;;22.26;38.19
67818;BME280;54614;47.576;7.524;2024-02-04T00:58:06;99943.72;;;22.24;38.15
67818;BME280;54614;47.576;7.524;2024-02-04T01:00:32;99937.16;;;22.18;38.14
67818;BME280;54614;47.576;7.524;2024-02-04T01:02:57;99937.31;;;22.16;38.12
67818;BME280;54614;47.576;7.524;2024-02-04T01:05:23;99927.09;;;22.12;38.51
67818;BME280;54614;47.576;7.524;2024-02-04T01:07:49;99929.28;;;22.16;38.16
67818;BME280;54614;47.576;7.524;2024-02-04T01:10:15;99933.81;;;22.16;38.30
67818;BME280;54614;47.576;7.524;2024-02-04T01:12:41;99919.56;;;22.15;38.13
67818;BME280;54614;47.576;7.524;2024-02-04T01:15:07;99913.53;;;22.13;37.88
67818;BME280;54614;47.576;7.524;2024-02-04T01:17:33;99883.06;;;22.14;38.42
67818;BME280;54614;47.576;7.524;2024-02-04T01:19:59;99874.00;;;22.15;38.15
67818;BME280;54614;47.576;7.524;2024-02-04T01:22:25;99867.31;;;22.11;38.05
67818;BME280;54614;47.576;7.524;2024-02-04T01:24:53;99874.84;;;22.08;37.95
67818;BME280;54614;47.576;7.524;2024-02-04T01:27:19;99870.66;;;22.05;37.74
67818;BME280;54614;47.576;7.524;2024-02-04T01:29:44;99864.13;;;22.08;38.03
67818;BME280;54614;47.576;7.524;2024-02-04T01:32:10;99875.69;;;22.08;37.91
67818;BME280;54614;47.576;7.524;2024-02-04T01:34:36;99875.34;;;22.11;37.89
67818;BME280;54614;47.576;7.524;2024-02-04T01:37:01;99893.44;;;22.09;37.98
67818;BME280;54614;47.576;7.524;2024-02-04T01:39:27;99903.31;;;22.09;38.05
67818;BME280;54614;47.576;7.524;2024-02-04T01:41:53;99905.00;;;22.10;38.06
67818;BME280;54614;47.576;7.524;2024-02-04T01:44:19;99897.09;;;22.08;38.38
67818;BME280;54614;47.576;7.524;2024-02-04T01:46:46;99881.38;;;22.13;38.05
67818;BME280;54614;47.576;7.524;2024-02-04T01:49:13;99863.28;;;22.07;37.88
67818;BME280;54614;47.576;7.524;2024-02-04T01:51:39;99872.00;;;22.09;37.93
67818;BME280;54614;47.576;7.524;2024-02-04T01:54:06;99886.22;;;22.10;37.98
67818;BME280;54614;47.576;7.524;2024-02-04T01:56:33;99876.50;;;22.09;37.86
67818;BME280;54614;47.576;7.524;2024-02-04T01:58:59;99876.50;;;22.09;38.10
67818;BME280;54614;47.576;7.524;2024-02-04T02:01:27;99891.59;;;22.10;38.17
67818;BME280;54614;47.576;7.524;2024-02-04T02:03:53;99903.31;;;22.09;38.04
67818;BME280;54614;47.576;7.524;2024-02-04T02:06:19;99912.34;;;22.08;37.87
67818;BME280;54614;47.576;7.524;2024-02-04T02:08:45;99910.00;;;22.05;37.92
67818;BME280;54614;47.576;7.524;2024-02-04T02:11:28;99921.38;;;22.07;37.86
67818;BME280;54614;47.576;7.524;2024-02-04T02:14:02;99921.72;;;22.04;38.12
67818;BME280;54614;47.576;7.524;2024-02-04T02:16:32;99915.53;;;22.03;38.08
67818;BME280;54614;47.576;7.524;2024-02-04T02:22:24;99902.97;;;22.04;38.03
67818;BME280;54614;47.576;7.524;2024-02-04T02:24:51;99903.81;;;22.04;38.18
67818;BME280;54614;47.576;7.524;2024-02-04T02:27:17;99899.28;;;22.05;38.12
67818;BME280;54614;47.576;7.524;2024-02-04T02:29:43;99885.34;;;22.01;38.10
67818;BME280;54614;47.576;7.524;2024-02-04T02:32:09;99889.84;;;22.01;38.01
67818;BME280;54614;47.576;7.524;2024-02-04T02:34:35;99888.00;;;22.01;37.92
67818;BME280;54614;47.576;7.524;2024-02-04T02:37:49;99894.53;;;21.99;37.98
67818;BME280;54614;47.576;7.524;2024-02-04T02:43:11;99911.44;;;21.99;38.29
67818;BME280;54614;47.576;7.524;2024-02-04T02:45:42;99904.59;;;21.97;38.18
67818;BME280;54614;47.576;7.524;2024-02-04T02:48:11;99908.94;;;21.98;38.02
67818;BME280;54614;47.576;7.524;2024-02-04T02:50:38;99923.00;;;22.00;38.17
67818;BME280;54614;47.576;7.524;2024-02-04T02:53:04;99925.69;;;22.00;38.32
67818;BME280;54614;47.576;7.524;2024-02-04T02:55:30;99920.50;;;21.98;38.24
67818;BME280;54614;47.576;7.524;2024-02-04T02:57:56;99919.66;;;21.98;38.25
67818;BME280;54614;47.576;7.524;2024-02-04T03:00:22;99917.31;;;21.95;38.14
67818;BME280;54614;47.576;7.524;2024-02-04T03:02:48;99915.47;;;21.95;38.21
67818;BME280;54614;47.576;7.524;2024-02-04T03:05:16;99919.16;;;21.94;38.11
67818;BME280;54614;47.576;7.524;2024-02-04T03:07:42;99926.19;;;21.95;38.22
67818;BME280;54614;47.576;7.524;2024-02-04T03:10:09;99926.34;;;21.94;38.22
67818;BME280;54614;47.576;7.524;2024-02-04T03:12:35;99939.06;;;21.92;38.17
67818;BME280;54614;47.576;7.524;2024-02-04T03:15:01;99931.03;;;21.92;37.93
67818;BME280;54614;47.576;7.524;2024-02-04T03:17:26;99920.97;;;21.94;38.24
67818;BME280;54614;47.576;7.524;2024-02-04T03:19:52;99924.97;;;21.90;37.94
67818;BME280;54614;47.576;7.524;2024-02-04T03:22:21;99917.63;;;21.92;38.21
67818;BME280;54614;47.576;7.524;2024-02-04T03:24:49;99922.16;;;21.91;37.96
67818;BME280;54614;47.576;7.524;2024-02-04T03:27:17;99917.78;;;21.90;38.24
67818;BME280;54614;47.576;7.524;2024-02-04T03:29:44;99924.81;;;21.91;38.00
67818;BME280;54614;47.576;7.524;2024-02-04T03:32:11;99925.19;;;21.96;37.95
67818;BME280;54614;47.576;7.524;2024-02-04T03:34:37;99920.97;;;21.94;38.02
67818;BME280;54614;47.576;7.524;2024-02-04T03:37:05;99934.53;;;21.92;38.15
67818;BME280;54614;47.576;7.524;2024-02-04T03:39:31;99940.22;;;21.89;38.05
67818;BME280;54614;47.576;7.524;2024-02-04T03:41:57;99944.75;;;21.88;38.18
67818;BME280;54614;47.576;7.524;2024-02-04T03:44:22;99947.25;;;21.90;37.98
67818;BME280;54614;47.576;7.524;2024-02-04T03:46:49;99946.09;;;21.93;38.18
67818;BME280;54614;47.576;7.524;2024-02-04T03:49:17;99949.94;;;21.90;38.11
67818;BME280;54614;47.576;7.524;2024-02-04T03:51:43;99953.78;;;21.87;37.92
67818;BME280;54614;47.576;7.524;2024-02-04T03:54:08;99951.25;;;21.86;37.93
67818;BME280;54614;47.576;7.524;2024-02-04T03:56:34;99952.25;;;21.85;38.07
67818;BME280;54614;47.576;7.524;2024-02-04T03:59:00;99951.94;;;21.88;38.37
67818;BME280;54614;47.576;7.524;2024-02-04T04:01:26;99945.75;;;21.87;38.13
67818;BME280;54614;47.576;7.524;2024-02-04T04:03:51;99947.56;;;21.87;38.00
67818;BME280;54614;47.576;7.524;2024-02-04T04:06:17;99950.41;;;21.85;38.16
67818;BME280;54614;47.576;7.524;2024-02-04T04:08:43;99956.63;;;21.86;38.06
67818;BME280;54614;47.576;7.524;2024-02-04T04:11:10;99949.75;;;21.83;38.05
67818;BME280;54614;47.576;7.524;2024-02-04T04:13:37;99943.38;;;21.84;38.13
67818;BME280;54614;47.576;7.524;2024-02-04T04:16:04;99936.34;;;21.83;37.97
67818;BME280;54614;47.576;7.524;2024-02-04T04:18:30;99930.16;;;21.83;37.90
67818;BME280;54614;47.576;7.524;2024-02-04T04:20:57;99936.50;;;21.82;38.17
67818;BME280;54614;47.576;7.524;2024-02-04T04:23:22;99936.50;;;21.82;38.11
67818;BME280;54614;47.576;7.524;2024-02-04T04:25:48;99934.19;;;21.87;37.82
67818;BME280;54614;47.576;7.524;2024-02-04T04:28:14;99927.16;;;21.86;38.02
67818;BME280;54614;47.576;7.524;2024-02-04T04:30:40;99928.63;;;21.80;38.46
67818;BME280;54614;47.576;7.524;2024-02-04T04:33:06;99924.13;;;21.81;38.28
67818;BME280;54614;47.576;7.524;2024-02-04T04:35:32;99920.94;;;21.85;38.17
67818;BME280;54614;47.576;7.524;2024-02-04T04:37:58;99924.28;;;21.79;37.87
67818;BME280;54614;47.576;7.524;2024-02-04T04:40:24;99911.88;;;21.78;38.16
67818;BME280;54614;47.576;7.524;2024-02-04T04:42:49;99904.84;;;21.77;37.93
67818;BME280;54614;47.576;7.524;2024-02-04T04:45:15;99898.31;;;21.80;38.19
67818;BME280;54614;47.576;7.524;2024-02-04T04:47:41;99909.03;;;21.80;37.90
67818;BME280;54614;47.576;7.524;2024-02-04T04:50:08;99913.56;;;21.79;37.81
67818;BME280;54614;47.576;7.524;2024-02-04T04:52:33;99908.22;;;21.79;38.16
67818;BME280;54614;47.576;7.524;2024-02-04T04:54:59;99908.22;;;21.79;38.21
67818;BME280;54614;47.576;7.524;2024-02-04T04:57:25;99917.06;;;21.80;38.25
67818;BME280;54614;47.576;7.524;2024-02-04T04:59:51;99905.53;;;21.79;37.97
67818;BME280;54614;47.576;7.524;2024-02-04T05:02:17;99903.84;;;21.78;38.21
67818;BME280;54614;47.576;7.524;2024-02-04T05:04:44;99898.13;;;21.73;38.08
67818;BME280;54614;47.576;7.524;2024-02-04T05:07:13;99899.16;;;21.80;38.38
67818;BME280;54614;47.576;7.524;2024-02-04T05:09:39;99901.19;;;21.86;39.25
67818;BME280;54614;47.576;7.524;2024-02-04T05:12:08;99911.56;;;21.81;39.48
67818;BME280;54614;47.576;7.524;2024-02-04T05:14:34;99911.56;;;21.81;38.36
67818;BME280;54614;47.576;7.524;2024-02-04T05:17:00;99911.19;;;21.76;38.35
67818;BME280;54614;47.576;7.524;2024-02-04T05:19:25;99913.41;;;21.81;38.16
67818;BME280;54614;47.576;7.524;2024-02-04T05:21:51;99916.28;;;21.87;38.14
67818;BME280;54614;47.576;7.524;2024-02-04T05:24:17;99913.25;;;21.82;37.76
67818;BME280;54614;47.576;7.524;2024-02-04T05:26:43;99914.56;;;21.78;37.97
67818;BME280;54614;47.576;7.524;2024-02-04T05:29:08;99913.03;;;21.76;38.17
67818;BME280;54614;47.576;7.524;2024-02-04T05:31:40;99911.03;;;21.78;38.33
67818;BME280;54614;47.576;7.524;2024-02-04T05:34:06;99906.84;;;21.75;37.96
67818;BME280;54614;47.576;7.524;2024-02-04T05:36:34;99905.69;;;21.78;37.97
67818;BME280;54614;47.576;7.524;2024-02-04T05:39:16;99913.56;;;21.79;37.96
67818;BME280;54614;47.576;7.524;2024-02-04T05:41:43;99925.94;;;21.80;37.91
67818;BME280;54614;47.576;7.524;2024-02-04T05:44:09;99921.09;;;21.76;38.05
67818;BME280;54614;47.576;7.524;2024-02-04T05:46:39;99921.25;;;21.74;38.10
67818;BME280;54614;47.576;7.524;2024-02-04T05:49:05;99920.41;;;21.74;38.48
67818;BME280;54614;47.576;7.524;2024-02-04T05:51:49;99923.44;;;21.79;38.61
67818;BME280;54614;47.576;7.524;2024-02-04T05:54:14;99914.88;;;21.75;37.82
67818;BME280;54614;47.576;7.524;2024-02-04T05:56:41;99916.25;;;21.79;37.97
67818;BME280;54614;47.576;7.524;2024-02-04T05:59:06;99910.84;;;21.71;37.86
67818;BME280;54614;47.576;7.524;2024-02-04T06:01:32;99908.34;;;21.70;38.25
67818;BME280;54614;47.576;7.524;2024-02-04T06:03:58;99913.03;;;21.76;38.19
67818;BME280;54614;47.576;7.524;2024-02-04T06:06:24;99911.38;;;21.75;38.17
67818;BME280;54614;47.576;7.524;2024-02-04T06:08:51;99915.72;;;21.76;38.05
67818;BME280;54614;47.576;7.524;2024-02-04T06:11:17;99933.94;;;21.72;37.63
67818;BME280;54614;47.576;7.524;2024-02-04T06:13:44;99938.47;;;21.72;37.92
67818;BME280;54614;47.576;7.524;2024-02-04T06:16:10;99943.50;;;21.75;37.47
67818;BME280;54614;47.576;7.524;2024-02-04T06:18:38;99941.00;;;21.73;37.19
67818;BME280;54614;47.576;7.524;2024-02-04T06:21:05;99951.88;;;21.72;37.30
67818;BME280;54614;47.576;7.524;2024-02-04T06:23:32;99948.97;;;21.65;37.44
67818;BME280;54614;47.576;7.524;2024-02-04T06:25:58;99945.31;;;21.66;37.32
67818;BME280;54614;47.576;7.524;2024-02-04T06:28:24;99950.50;;;21.68;37.33
67818;BME280;54614;47.576;7.524;2024-02-04T06:30:50;99948.03;;;21.74;37.08
67818;BME280;54614;47.576;7.524;2024-02-04T06:33:16;99957.38;;;21.70;37.10
67818;BME280;54614;47.576;7.524;2024-02-04T06:35:42;99960.06;;;21.70;37.25
67818;BME280;54614;47.576;7.524;2024-02-04T06:38:08;99955.69;;;21.69;37.13
67818;BME280;54614;47.576;7.524;2024-02-04T06:40:34;99938.28;;;21.65;37.15
67818;BME280;54614;47.576;7.524;2024-02-04T06:42:59;99943.63;;;21.65;37.17
67818;BME280;54614;47.576;7.524;2024-02-04T06:45:25;99950.66;;;21.66;37.65
67818;BME280;54614;47.576;7.524;2024-02-04T06:47:51;99952.03;;;21.70;37.30
67818;BME280;54614;47.576;7.524;2024-02-04T06:50:17;99962.72;;;21.70;37.32
67818;BME280;54614;47.576;7.524;2024-02-04T06:52:43;99954.69;;;21.70;37.13
67818;BME280;54614;47.576;7.524;2024-02-04T06:55:09;99939.94;;;21.66;37.43
67818;BME280;54614;47.576;7.524;2024-02-04T06:57:35;99949.66;;;21.67;37.24
67818;BME280;54614;47.576;7.524;2024-02-04T07:00:02;99961.06;;;21.69;36.93
67818;BME280;54614;47.576;7.524;2024-02-04T07:02:37;99969.25;;;21.68;37.35
67818;BME280;54614;47.576;7.524;2024-02-04T07:05:04;99969.72;;;21.63;37.53
67818;BME280;54614;47.576;7.524;2024-02-04T07:07:30;99965.53;;;21.61;37.36
67818;BME280;54614;47.576;7.524;2024-02-04T07:09:57;99969.72;;;21.63;37.66
67818;BME280;54614;47.576;7.524;2024-02-04T07:12:23;99967.03;;;21.63;37.30
67818;BME280;54614;47.576;7.524;2024-02-04T07:14:48;99966.53;;;21.60;37.48
67818;BME280;54614;47.576;7.524;2024-02-04T07:17:14;99977.75;;;21.63;37.25
67818;BME280;54614;47.576;7.524;2024-02-04T07:19:40;99976.06;;;21.62;37.39
67818;BME280;54614;47.576;7.524;2024-02-04T07:22:06;99976.91;;;21.63;37.58
67818;BME280;54614;47.576;7.524;2024-02-04T07:24:32;99973.09;;;21.65;37.42
67818;BME280;54614;47.576;7.524;2024-02-04T07:26:58;99967.72;;;21.65;37.26
67818;BME280;54614;47.576;7.524;2024-02-04T07:29:24;99968.72;;;21.64;37.33
67818;BME280;54614;47.576;7.524;2024-02-04T07:31:50;99976.06;;;21.62;37.23
67818;BME280;54614;47.576;7.524;2024-02-04T07:34:16;99975.25;;;21.62;37.53
67818;BME280;54614;47.576;7.524;2024-02-04T07:36:42;99973.41;;;21.62;37.52
67818;BME280;54614;47.576;7.524;2024-02-04T07:39:09;99969.88;;;21.62;37.20
67818;BME280;54614;47.576;7.524;2024-02-04T07:41:35;99966.31;;;21.53;37.85
67818;BME280;54614;47.576;7.524;2024-02-04T07:44:00;99967.38;;;21.60;37.28
67818;BME280;54614;47.576;7.524;2024-02-04T07:46:26;99957.66;;;21.59;37.56
67818;BME280;54614;47.576;7.524;2024-02-04T07:48:52;99948.78;;;21.59;37.25
67818;BME280;54614;47.576;7.524;2024-02-04T07:51:18;99958.66;;;21.58;37.34
67818;BME280;54614;47.576;7.524;2024-02-04T07:53:43;99962.31;;;21.57;37.27
67818;BME280;54614;47.576;7.524;2024-02-04T07:56:09;99954.28;;;21.57;37.71
67818;BME280;54614;47.576;7.524;2024-02-04T07:58:36;99954.81;;;21.61;37.54
67818;BME280;54614;47.576;7.524;2024-02-04T08:01:02;99952.66;;;21.64;38.00
67818;BME280;54614;47.576;7.524;2024-02-04T08:03:28;99955.66;;;21.61;37.77
67818;BME280;54614;47.576;7.524;2024-02-04T08:05:54;99959.34;;;21.60;38.34
67818;BME280;54614;47.576;7.524;2024-02-04T08:08:20;99960.50;;;21.58;37.77
67818;BME280;54614;47.576;7.524;2024-02-04T08:10:46;99951.50;;;21.67;38.67
67818;BME280;54614;47.576;7.524;2024-02-04T08:13:11;99944.38;;;21.83;40.18
67818;BME280;54614;47.576;7.524;2024-02-04T08:15:37;99938.03;;;21.84;39.55
67818;BME280;54614;47.576;7.524;2024-02-04T08:18:03;99928.66;;;21.88;38.37
67818;BME280;54614;47.576;7.524;2024-02-04T08:20:29;99938.72;;;21.95;38.33
67818;BME280;54614;47.576;7.524;2024-02-04T08:22:55;99939.75;;;22.02;38.21
67818;BME280;54614;47.576;7.524;2024-02-04T08:25:20;99930.59;;;22.04;38.18
67818;BME280;54614;47.576;7.524;2024-02-04T08:27:46;99928.59;;;22.06;37.91
67818;BME280;54614;47.576;7.524;2024-02-04T08:30:12;99925.53;;;22.01;38.03
67818;BME280;54614;47.576;7.524;2024-02-04T08:32:38;99924.69;;;22.01;38.17
67818;BME280;54614;47.576;7.524;2024-02-04T08:35:05;99935.56;;;21.99;37.92
67818;BME280;54614;47.576;7.524;2024-02-04T08:37:32;99947.59;;;21.95;38.15
67818;BME280;54614;47.576;7.524;2024-02-04T08:39:59;99933.38;;;21.95;38.04
67818;BME280;54614;47.576;7.524;2024-02-04T08:42:24;99930.03;;;21.93;38.20
67818;BME280;54614;47.576;7.524;2024-02-04T08:44:50;99924.66;;;21.93;38.41
67818;BME280;54614;47.576;7.524;2024-02-04T08:47:16;99922.34;;;21.98;38.70
67818;BME280;54614;47.576;7.524;2024-02-04T08:49:43;99921.00;;;22.02;38.40
67818;BME280;54614;47.576;7.524;2024-02-04T08:52:09;99916.03;;;22.07;39.42
67818;BME280;54614;47.576;7.524;2024-02-04T08:54:34;99926.13;;;22.29;46.21
67818;BME280;54614;47.576;7.524;2024-02-04T08:57:00;99926.66;;;22.41;45.56
67818;BME280;54614;47.576;7.524;2024-02-04T08:59:26;99931.19;;;22.40;45.29
67818;BME280;54614;47.576;7.524;2024-02-04T09:01:52;99933.38;;;22.45;44.26
67818;BME280;54614;47.576;7.524;2024-02-04T09:04:17;99937.41;;;22.49;43.76
67818;BME280;54614;47.576;7.524;2024-02-04T09:06:43;99929.88;;;22.52;43.29
67818;BME280;54614;47.576;7.524;2024-02-04T09:09:09;99927.84;;;22.55;43.04
67818;BME280;54614;47.576;7.524;2024-02-04T09:11:35;99929.88;;;22.61;42.48
67818;BME280;54614;47.576;7.524;2024-02-04T09:14:01;99926.19;;;22.54;42.09
67818;BME280;54614;47.576;7.524;2024-02-04T09:16:29;99926.19;;;22.54;41.43
67818;BME280;54614;47.576;7.524;2024-02-04T09:18:54;99918.63;;;22.57;41.52
67818;BME280;54614;47.576;7.524;2024-02-04T09:21:20;99920.81;;;22.62;41.56
67818;BME280;54614;47.576;7.524;2024-02-04T09:23:46;99926.50;;;22.59;41.15
67818;BME280;54614;47.576;7.524;2024-02-04T09:26:12;99918.81;;;22.64;40.72
67818;BME280;54614;47.576;7.524;2024-02-04T09:28:37;99917.81;;;22.65;41.03
67818;BME280;54614;47.576;7.524;2024-02-04T09:31:03;99922.00;;;22.67;40.12
67818;BME280;54614;47.576;7.524;2024-02-04T09:33:29;99925.84;;;22.65;40.36
67818;BME280;54614;47.576;7.524;2024-02-04T09:35:55;99923.84;;;22.67;40.22
67818;BME280;54614;47.576;7.524;2024-02-04T09:38:21;99937.94;;;22.69;39.98
67818;BME280;54614;47.576;7.524;2024-02-04T09:40:47;99928.19;;;22.68;40.02
67818;BME280;54614;47.576;7.524;2024-02-04T09:43:13;99936.41;;;22.58;39.34
67818;BME280;54614;47.576;7.524;2024-02-04T09:45:40;99927.00;;;22.46;38.33
67818;BME280;54614;47.576;7.524;2024-02-04T09:48:08;99920.97;;;22.44;37.61
67818;BME280;54614;47.576;7.524;2024-02-04T09:50:34;99921.13;;;22.42;37.07
67818;BME280;54614;47.576;7.524;2024-02-04T09:53:03;99909.75;;;22.48;37.51
67818;BME280;54614;47.576;7.524;2024-02-04T09:55:32;99899.03;;;22.57;37.35
67818;BME280;54614;47.576;7.524;2024-02-04T09:57:58;99885.63;;;22.48;37.48
67818;BME280;54614;47.576;7.524;2024-02-04T10:00:29;99874.88;;;22.40;37.92
67818;BME280;54614;47.576;7.524;2024-02-04T10:02:56;99876.41;;;22.51;37.44
67818;BME280;54614;47.576;7.524;2024-02-04T10:05:22;99884.94;;;22.55;37.62
67818;BME280;54614;47.576;7.524;2024-02-04T10:07:48;99879.59;;;22.63;37.40
67818;BME280;54614;47.576;7.524;2024-02-04T10:10:14;99877.06;;;22.69;37.60
67818;BME280;54614;47.576;7.524;2024-02-04T10:12:39;99879.75;;;22.69;37.35
67818;BME280;54614;47.576;7.524;2024-02-04T10:15:08;99886.47;;;22.73;37.31
67818;BME280;54614;47.576;7.524;2024-02-04T10:17:33;99903.22;;;22.75;36.96
67818;BME280;54614;47.576;7.524;2024-02-04T10:20:01;99900.03;;;22.72;37.29
67818;BME280;54614;47.576;7.524;2024-02-04T10:22:28;99903.06;;;22.77;37.70
67818;BME280;54614;47.576;7.524;2024-02-04T10:25:05;99898.19;;;22.72;37.44
67818;BME280;54614;47.576;7.524;2024-02-04T10:27:31;99902.56;;;22.73;37.48
67818;BME280;54614;47.576;7.524;2024-02-04T10:29:57;99897.69;;;22.69;37.47
67818;BME280;54614;47.576;7.524;2024-02-04T10:32:23;99895.84;;;22.69;37.60
67818;BME280;54614;47.576;7.524;2024-02-04T10:34:48;99894.34;;;22.67;37.67
67818;BME280;54614;47.576;7.524;2024-02-04T10:37:14;99891.81;;;22.57;37.92
67818;BME280;54614;47.576;7.524;2024-02-04T10:39:40;99893.00;;;22.55;37.74
67818;BME280;54614;47.576;7.524;2024-02-04T10:42:08;99896.34;;;22.57;37.83
67818;BME280;54614;47.576;7.524;2024-02-04T10:44:37;99893.00;;;22.55;37.73
67818;BME280;54614;47.576;7.524;2024-02-04T10:47:07;99886.63;;;22.56;37.76
67818;BME280;54614;47.576;7.524;2024-02-04T10:49:39;99888.81;;;22.60;38.22
67818;BME280;54614;47.576;7.524;2024-02-04T10:52:11;99885.28;;;22.60;38.23
67818;BME280;54614;47.576;7.524;2024-02-04T10:54:40;99887.97;;;22.60;38.52
67818;BME280;54614;47.576;7.524;2024-02-04T10:57:13;99884.94;;;22.63;38.55
67818;BME280;54614;47.576;7.524;2024-02-04T10:59:42;99873.56;;;22.61;38.81
67818;BME280;54614;47.576;7.524;2024-02-04T11:02:11;99875.56;;;22.67;38.41
67818;BME280;54614;47.576;7.524;2024-02-04T11:04:38;99872.22;;;22.65;38.69
67818;BME280;54614;47.576;7.524;2024-02-04T11:07:05;99873.88;;;22.66;38.54
67818;BME280;54614;47.576;7.524;2024-02-04T11:09:32;99866.16;;;22.71;37.71
67818;BME280;54614;47.576;7.524;2024-02-04T11:12:00;99872.72;;;22.76;38.13
67818;BME280;54614;47.576;7.524;2024-02-04T11:14:27;99878.75;;;22.78;37.78
67818;BME280;54614;47.576;7.524;2024-02-04T11:23:27;99872.91;;;22.83;38.39
67818;BME280;54614;47.576;7.524;2024-02-04T11:25:59;99866.88;;;22.81;38.54
67818;BME280;54614;47.576;7.524;2024-02-04T11:28:26;99853.78;;;22.86;38.67
67818;BME280;54614;47.576;7.524;2024-02-04T11:30:52;99853.28;;;22.91;38.72
67818;BME280;54614;47.576;7.524;2024-02-04T11:33:21;99852.09;;;22.93;38.12
67818;BME280;54614;47.576;7.524;2024-02-04T11:36:11;99848.22;;;22.96;38.44
67818;BME280;54614;47.576;7.524;2024-02-04T11:38:37;99841.19;;;22.95;38.29
67818;BME280;54614;47.576;7.524;2024-02-04T11:41:04;99831.28;;;22.95;38.33
67818;BME280;54614;47.576;7.524;2024-02-04T11:43:33;99825.75;;;22.97;38.54
67818;BME280;54614;47.576;7.524;2024-02-04T11:46:03;99826.09;;;22.94;38.55
67818;BME280;54614;47.576;7.524;2024-02-04T11:48:30;99839.69;;;22.92;38.27
67818;BME280;54614;47.576;7.524;2024-02-04T11:50:58;99834.16;;;22.94;38.15
67818;BME280;54614;47.576;7.524;2024-02-04T11:53:28;99834.31;;;22.92;38.25
67818;BME280;54614;47.576;7.524;2024-02-04T11:56:00;99834.50;;;22.91;38.00
67818;BME280;54614;47.576;7.524;2024-02-04T11:58:27;99847.75;;;22.92;38.27
67818;BME280;54614;47.576;7.524;2024-02-04T12:00:56;99835.81;;;22.95;38.76
67818;BME280;54614;47.576;7.524;2024-02-04T12:03:29;99843.53;;;22.98;38.48
67818;BME280;54614;47.576;7.524;2024-02-04T12:05:56;99842.34;;;23.00;38.46
67818;BME280;54614;47.576;7.524;2024-02-04T12:08:23;99845.38;;;23.05;38.46
67818;BME280;54614;47.576;7.524;2024-02-04T12:10:50;99840.50;;;23.09;38.42
67818;BME280;54614;47.576;7.524;2024-02-04T12:13:18;99847.84;;;23.15;37.84
67818;BME280;54614;47.576;7.524;2024-02-04T12:15:45;99844.66;;;23.20;38.25
67818;BME280;54614;47.576;7.524;2024-02-04T12:18:12;99831.19;;;23.28;37.82
67818;BME280;54614;47.576;7.524;2024-02-04T12:20:40;99828.53;;;23.28;38.11
67818;BME280;54614;47.576;7.524;2024-02-04T12:23:07;99820.78;;;23.33;37.89
67818;BME280;54614;47.576;7.524;2024-02-04T12:25:35;99814.75;;;23.31;38.20
67818;BME280;54614;47.576;7.524;2024-02-04T12:28:02;99816.78;;;23.29;38.18
67818;BME280;54614;47.576;7.524;2024-02-04T12:30:30;99812.06;;;23.31;38.01
67818;BME280;54614;47.576;7.524;2024-02-04T12:33:03;99813.75;;;23.32;38.18
67818;BME280;54614;47.576;7.524;2024-02-04T12:35:30;99810.56;;;23.28;37.93
67818;BME280;54614;47.576;7.524;2024-02-04T12:37:59;99821.78;;;23.32;38.13
67818;BME280;54614;47.576;7.524;2024-02-04T12:40:29;99810.22;;;23.31;37.87
67818;BME280;54614;47.576;7.524;2024-02-04T12:42:56;99807.19;;;23.34;37.92
67818;BME280;54614;47.576;7.524;2024-02-04T12:45:24;99803.00;;;23.32;37.95
67818;BME280;54614;47.576;7.524;2024-02-04T12:47:57;99807.19;;;23.34;37.87
67818;BME280;54614;47.576;7.524;2024-02-04T12:50:24;99797.63;;;23.32;37.91
67818;BME280;54614;47.576;7.524;2024-02-04T12:53:10;99800.97;;;23.34;38.00
67818;BME280;54614;47.576;7.524;2024-02-04T12:55:38;99803.66;;;23.34;37.77
67818;BME280;54614;47.576;7.524;2024-02-04T12:58:12;99807.34;;;23.33;37.98
67818;BME280;54614;47.576;7.524;2024-02-04T13:00:40;99798.66;;;23.31;38.06
67818;BME280;54614;47.576;7.524;2024-02-04T13:03:07;99794.44;;;23.36;37.75
67818;BME280;54614;47.576;7.524;2024-02-04T13:05:34;99790.06;;;23.35;38.16
67818;BME280;54614;47.576;7.524;2024-02-04T13:08:02;99780.84;;;23.30;37.87
67818;BME280;54614;47.576;7.524;2024-02-04T13:10:35;99772.63;;;23.31;37.88
67818;BME280;54614;47.576;7.524;2024-02-04T13:13:08;99773.13;;;23.35;37.97